sensor_id;sensor_type;location;lat;lon;timestamp;pressure;altitude;pressure_sealevel;temperature;humidity
42289;BME280;30230;47.520;19.016;2023-08-06T00:00:18;97744.38;;;19.24;100.00
42289;BME280;30230;47.520;19.016;2023-08-06T00:02:18;97749.25;;;19.27;100.00
42289;BME280;30230;47.520;19.016;2023-08-06T00:04:19;97733.78;;;19.17;100.00
42289;BME280;30230;47.520;19.016;2023-08-06T00:06:19;97755.53;;;19.27;100.00
42289;BME280;30230;47.520;19.016;2023-08-06T00:08:20;97758.00;;;19.29;100.00
42289;BME280;30230;47.520;19.016;2023-08-06T00:10:20;97755.19;;;19.34;100.00
42289;BME280;30230;47.520;19.016;2023-08-06T00:12:21;97747.56;;;19.31;100.00
42289;BME280;30230;47.520;19.016;2023-08-06T00:14:21;97748.75;;;19.25;100.00
42289;BME280;30230;47.520;19.016;2023-08-06T00:16:21;97753.09;;;19.26;100.00
42289;BME280;30230;47.520;19.016;2023-08-06T00:18:22;97765.16;;;19.25;100.00
42289;BME280;30230;47.520;19.016;2023-08-06T00:20:22;97764.66;;;19.23;100.00
42289;BME280;30230;47.520;19.016;2023-08-06T00:22:23;97759.78;;;19.20;100.00
42289;BME280;30230;47.520;19.016;2023-08-06T00:24:23;97769.38;;;19.17;100.00
42289;BME280;30230;47.520;19.016;2023-08-06T00:26:23;97776.50;;;19.18;100.00
42289;BME280;30230;47.520;19.016;2023-08-06T00:28:24;97771.31;;;19.17;100.00
42289;BME280;30230;47.520;19.016;2023-08-06T00:30:25;97772.94;;;19.18;100.00
42289;BME280;30230;47.520;19.016;2023-08-06T00:32:25;97773.97;;;19.22;100.00
42289;BME280;30230;47.520;19.016;2023-08-06T00:34:26;97763.00;;;19.22;100.00
42289;BME280;30230;47.520;19.016;2023-08-06T00:36:26;97758.88;;;19.24;100.00
42289;BME280;30230;47.520;19.016;2023-08-06T00:38:26;97755.91;;;19.21;100.00
42289;BME280;30230;47.520;19.016;2023-08-06T00:40:27;97762.00;;;19.18;100.00
42289;BME280;30230;47.520;19.016;2023-08-06T00:42:29;97746.47;;;19.13;100.00
42289;BME280;30230;47.520;19.016;2023-08-06T00:44:29;97734.72;;;19.13;100.00
42289;BME280;30230;47.520;19.016;2023-08-06T00:46:30;97716.44;;;19.08;100.00
42289;BME280;30230;47.520;19.016;2023-08-06T00:48:31;97700.28;;;19.07;100.00
42289;BME280;30230;47.520;19.016;2023-08-06T00:50:32;97712.28;;;19.11;100.00
42289;BME280;30230;47.520;19.016;2023-08-06T00:52:33;97704.38;;;19.09;100.00
42289;BME280;30230;47.520;19.016;2023-08-06T00:54:34;97717.81;;;19.06;100.00
42289;BME280;30230;47.520;19.016;2023-08-06T00:56:36;97712.97;;;19.03;100.00
42289;BME280;30230;47.520;19.016;2023-08-06T00:58:38;97717.53;;;19.07;100.00
42289;BME280;30230;47.520;19.016;2023-08-06T01:00:39;97710.22;;;19.03;100.00
42289;BME280;30230;47.520;19.016;2023-08-06T01:02:39;97702.91;;;18.98;100.00
42289;BME280;30230;47.520;19.016;2023-08-06T01:04:40;97700.44;;;18.96;100.00
42289;BME280;30230;47.520;19.016;2023-08-06T01:07:05;97703.78;;;18.93;100.00
42289;BME280;30230;47.520;19.016;2023-08-06T01:15:45;97698.09;;;18.90;100.00
42289;BME280;30230;47.520;19.016;2023-08-06T01:17:47;97688.50;;;18.92;100.00
42289;BME280;30230;47.520;19.016;2023-08-06T01:19:48;97686.34;;;18.89;100.00
42289;BME280;30230;47.520;19.016;2023-08-06T01:21:48;97672.31;;;18.77;100.00
42289;BME280;30230;47.520;19.016;2023-08-06T01:23:49;97675.97;;;18.86;100.00
42289;BME280;30230;47.520;19.016;2023-08-06T01:26:15;97677.91;;;18.86;100.00
42289;BME280;30230;47.520;19.016;2023-08-06T01:28:44;97675.47;;;18.84;100.00
42289;BME280;30230;47.520;19.016;2023-08-06T01:30:48;97677.69;;;18.82;100.00
42289;BME280;30230;47.520;19.016;2023-08-06T01:32:53;97678.19;;;18.84;100.00
42289;BME280;30230;47.520;19.016;2023-08-06T01:34:57;97680.44;;;18.82;100.00
42289;BME280;30230;47.520;19.016;2023-08-06T01:37:00;97680.13;;;18.84;100.00
42289;BME280;30230;47.520;19.016;2023-08-06T01:39:01;97686.41;;;18.84;100.00
42289;BME280;30230;47.520;19.016;2023-08-06T01:41:02;97676.19;;;18.90;100.00
42289;BME280;30230;47.520;19.016;2023-08-06T01:43:02;97669.69;;;18.86;100.00
42289;BME280;30230;47.520;19.016;2023-08-06T01:45:03;97668.94;;;18.80;100.00
42289;BME280;30230;47.520;19.016;2023-08-06T01:47:04;97670.66;;;18.76;100.00
42289;BME280;30230;47.520;19.016;2023-08-06T01:49:04;97665.25;;;18.71;100.00
42289;BME280;30230;47.520;19.016;2023-08-06T01:51:05;97666.28;;;18.75;100.00
42289;BME280;30230;47.520;19.016;2023-08-06T01:53:06;97652.91;;;18.73;100.00
42289;BME280;30230;47.520;19.016;2023-08-06T01:55:06;97645.03;;;18.72;100.00
42289;BME280;30230;47.520;19.016;2023-08-06T01:57:07;97645.84;;;18.72;100.00
42289;BME280;30230;47.520;19.016;2023-08-06T01:59:07;97643.38;;;18.71;100.00
42289;BME280;30230;47.520;19.016;2023-08-06T02:01:08;97641.75;;;18.70;100.00
42289;BME280;30230;47.520;19.016;2023-08-06T02:03:08;97637.09;;;18.70;100.00
42289;BME280;30230;47.520;19.016;2023-08-06T02:05:08;97625.91;;;18.67;100.00
42289;BME280;30230;47.520;19.016;2023-08-06T02:07:09;97620.44;;;18.67;100.00
42289;BME280;30230;47.520;19.016;2023-08-06T02:09:09;97619.63;;;18.66;100.00
42289;BME280;30230;47.520;19.016;2023-08-06T02:11:10;97619.09;;;18.64;100.00
42289;BME280;30230;47.520;19.016;2023-08-06T02:13:10;97612.53;;;18.65;100.00
42289;BME280;30230;47.520;19.016;2023-08-06T02:15:10;97614.44;;;18.65;100.00
42289;BME280;30230;47.520;19.016;2023-08-06T02:17:11;97601.97;;;18.59;100.00
42289;BME280;30230;47.520;19.016;2023-08-06T02:19:11;97610.16;;;18.59;100.00
42289;BME280;30230;47.520;19.016;2023-08-06T02:21:12;97604.69;;;18.59;100.00
42289;BME280;30230;47.520;19.016;2023-08-06T02:23:12;97603.38;;;18.56;100.00
42289;BME280;30230;47.520;19.016;2023-08-06T02:25:12;97601.66;;;18.60;100.00
42289;BME280;30230;47.520;19.016;2023-08-06T02:27:13;97600.34;;;18.58;100.00
42289;BME280;30230;47.520;19.016;2023-08-06T02:29:13;97591.63;;;18.56;100.00
42289;BME280;30230;47.520;19.016;2023-08-06T02:31:14;97590.53;;;18.57;100.00
42289;BME280;30230;47.520;19.016;2023-08-06T02:33:14;97573.66;;;18.49;100.00
42289;BME280;30230;47.520;19.016;2023-08-06T02:35:15;97584.75;;;18.58;100.00
42289;BME280;30230;47.520;19.016;2023-08-06T02:37:15;97579.59;;;18.57;100.00
42289;BME280;30230;47.520;19.016;2023-08-06T02:39:15;97576.84;;;18.57;100.00
42289;BME280;30230;47.520;19.016;2023-08-06T02:41:16;97575.72;;;18.58;100.00
42289;BME280;30230;47.520;19.016;2023-08-06T02:43:16;97571.66;;;18.55;100.00
42289;BME280;30230;47.520;19.016;2023-08-06T02:45:16;97569.53;;;18.52;100.00
42289;BME280;30230;47.520;19.016;2023-08-06T02:47:17;97580.47;;;18.52;100.00
42289;BME280;30230;47.520;19.016;2023-08-06T02:49:17;97589.41;;;18.58;100.00
42289;BME280;30230;47.520;19.016;2023-08-06T02:51:18;97587.88;;;18.52;100.00
42289;BME280;30230;47.520;19.016;2023-08-06T02:53:18;97587.31;;;18.49;100.00
42289;BME280;30230;47.520;19.016;2023-08-06T02:55:18;97585.72;;;18.48;100.00
42289;BME280;30230;47.520;19.016;2023-08-06T02:57:19;97583.78;;;18.49;100.00
42289;BME280;30230;47.520;19.016;2023-08-06T02:59:19;97586.81;;;18.47;100.00
42289;BME280;30230;47.520;19.016;2023-08-06T03:01:20;97586.25;;;18.51;100.00
42289;BME280;30230;47.520;19.016;2023-08-06T03:03:20;97582.66;;;18.50;100.00
42289;BME280;30230;47.520;19.016;2023-08-06T03:05:20;97582.97;;;18.48;100.00
42289;BME280;30230;47.520;19.016;2023-08-06T03:07:21;97577.97;;;18.56;100.00
42289;BME280;30230;47.520;19.016;2023-08-06T03:09:21;97585.13;;;18.52;100.00
42289;BME280;30230;47.520;19.016;2023-08-06T03:11:22;97576.31;;;18.55;100.00
42289;BME280;30230;47.520;19.016;2023-08-06T03:13:22;97573.56;;;18.55;100.00
42289;BME280;30230;47.520;19.016;2023-08-06T03:15:23;97571.16;;;18.53;100.00
42289;BME280;30230;47.520;19.016;2023-08-06T03:17:23;97564.38;;;18.51;100.00
42289;BME280;30230;47.520;19.016;2023-08-06T03:19:23;97574.69;;;18.54;100.00
42289;BME280;30230;47.520;19.016;2023-08-06T03:21:24;97581.50;;;18.56;100.00
42289;BME280;30230;47.520;19.016;2023-08-06T03:23:25;97574.38;;;18.55;100.00
42289;BME280;30230;47.520;19.016;2023-08-06T03:25:25;97570.84;;;18.55;100.00
42289;BME280;30230;47.520;19.016;2023-08-06T03:27:25;97573.56;;;18.55;100.00
42289;BME280;30230;47.520;19.016;2023-08-06T03:29:26;97565.44;;;18.49;100.00
42289;BME280;30230;47.520;19.016;2023-08-06T03:31:26;97573.38;;;18.51;100.00
42289;BME280;30230;47.520;19.016;2023-08-06T03:33:27;97578.53;;;18.53;100.00
42289;BME280;30230;47.520;19.016;2023-08-06T03:35:27;97573.38;;;18.51;100.00
42289;BME280;30230;47.520;19.016;2023-08-06T03:37:28;97564.38;;;18.51;100.00
42289;BME280;30230;47.520;19.016;2023-08-06T03:39:28;97570.66;;;18.51;100.00
42289;BME280;30230;47.520;19.016;2023-08-06T03:41:28;97570.56;;;18.56;100.00
42289;BME280;30230;47.520;19.016;2023-08-06T03:43:29;97569.22;;;18.54;100.00
42289;BME280;30230;47.520;19.016;2023-08-06T03:45:29;97567.38;;;18.49;100.00
42289;BME280;30230;47.520;19.016;2023-08-06T03:47:29;97573.47;;;18.46;100.00
42289;BME280;30230;47.520;19.016;2023-08-06T03:49:30;97568.88;;;18.41;100.00
42289;BME280;30230;47.520;19.016;2023-08-06T03:51:30;97574.19;;;18.33;100.00
42289;BME280;30230;47.520;19.016;2023-08-06T03:53:31;97570.13;;;18.30;100.00
42289;BME280;30230;47.520;19.016;2023-08-06T03:55:31;97572.31;;;18.28;100.00
42289;BME280;30230;47.520;19.016;2023-08-06T03:57:32;97568.41;;;18.15;100.00
42289;BME280;30230;47.520;19.016;2023-08-06T03:59:32;97575.81;;;18.15;100.00
42289;BME280;30230;47.520;19.016;2023-08-06T04:01:32;97573.47;;;18.03;100.00
42289;BME280;30230;47.520;19.016;2023-08-06T04:03:33;97566.03;;;17.90;100.00
42289;BME280;30230;47.520;19.016;2023-08-06T04:05:33;97567.66;;;17.91;100.00
42289;BME280;30230;47.520;19.016;2023-08-06T04:07:34;97560.88;;;17.88;100.00
42289;BME280;30230;47.520;19.016;2023-08-06T04:09:51;97554.78;;;17.91;100.00
42289;BME280;30230;47.520;19.016;2023-08-06T04:11:52;97563.06;;;17.86;100.00
42289;BME280;30230;47.520;19.016;2023-08-06T04:13:52;97560.94;;;17.83;100.00
42289;BME280;30230;47.520;19.016;2023-08-06T04:15:54;97552.50;;;17.80;100.00
42289;BME280;30230;47.520;19.016;2023-08-06T04:17:54;97558.25;;;17.78;100.00
42289;BME280;30230;47.520;19.016;2023-08-06T04:19:56;97553.31;;;17.80;100.00
42289;BME280;30230;47.520;19.016;2023-08-06T04:22:00;97561.50;;;17.80;100.00
42289;BME280;30230;47.520;19.016;2023-08-06T04:24:01;97550.94;;;17.74;100.00
42289;BME280;30230;47.520;19.016;2023-08-06T04:26:02;97552.56;;;17.75;100.00
42289;BME280;30230;47.520;19.016;2023-08-06T04:28:02;97551.78;;;17.69;100.00
42289;BME280;30230;47.520;19.016;2023-08-06T04:30:03;97546.22;;;17.79;100.00
42289;BME280;30230;47.520;19.016;2023-08-06T04:32:05;97542.78;;;17.68;100.00
42289;BME280;30230;47.520;19.016;2023-08-06T04:34:06;97541.97;;;17.68;100.00
42289;BME280;30230;47.520;19.016;2023-08-06T04:36:08;97540.97;;;17.59;100.00
42289;BME280;30230;47.520;19.016;2023-08-06T04:38:08;97535.56;;;17.54;100.00
42289;BME280;30230;47.520;19.016;2023-08-06T04:40:09;97539.13;;;17.54;100.00
42289;BME280;30230;47.520;19.016;2023-08-06T04:42:09;97541.84;;;17.54;100.00
42289;BME280;30230;47.520;19.016;2023-08-06T04:44:10;97529.88;;;17.50;100.00
42289;BME280;30230;47.520;19.016;2023-08-06T04:46:10;97516.34;;;17.40;100.00
42289;BME280;30230;47.520;19.016;2023-08-06T04:48:11;97529.19;;;17.39;100.00
42289;BME280;30230;47.520;19.016;2023-08-06T04:50:11;97530.00;;;17.40;100.00
42289;BME280;30230;47.520;19.016;2023-08-06T04:52:11;97534.19;;;17.32;100.00
42289;BME280;30230;47.520;19.016;2023-08-06T04:54:12;97525.06;;;17.18;100.00
42289;BME280;30230;47.520;19.016;2023-08-06T04:56:12;97533.44;;;17.27;100.00
42289;BME280;30230;47.520;19.016;2023-08-06T04:58:13;97520.59;;;17.27;100.00
42289;BME280;30230;47.520;19.016;2023-08-06T05:00:13;97523.31;;;17.27;100.00
42289;BME280;30230;47.520;19.016;2023-08-06T05:02:14;97533.75;;;17.20;100.00
42289;BME280;30230;47.520;19.016;2023-08-06T05:04:14;97525.72;;;17.05;100.00
42289;BME280;30230;47.520;19.016;2023-08-06T05:06:14;97519.94;;;17.11;100.00
42289;BME280;30230;47.520;19.016;2023-08-06T05:08:15;97520.41;;;17.18;100.00
42289;BME280;30230;47.520;19.016;2023-08-06T05:10:16;97518.19;;;17.21;100.00
42289;BME280;30230;47.520;19.016;2023-08-06T05:12:17;97522.47;;;17.03;100.00
42289;BME280;30230;47.520;19.016;2023-08-06T05:14:17;97508.22;;;17.11;100.00
42289;BME280;30230;47.520;19.016;2023-08-06T05:16:18;97509.28;;;17.10;100.00
42289;BME280;30230;47.520;19.016;2023-08-06T05:18:18;97510.31;;;17.19;100.00
42289;BME280;30230;47.520;19.016;2023-08-06T05:20:20;97515.19;;;17.22;100.00
42289;BME280;30230;47.520;19.016;2023-08-06T05:22:20;97509.53;;;17.13;100.00
42289;BME280;30230;47.520;19.016;2023-08-06T05:24:21;97506.56;;;17.10;100.00
42289;BME280;30230;47.520;19.016;2023-08-06T05:26:21;97518.28;;;17.10;100.00
42289;BME280;30230;47.520;19.016;2023-08-06T05:28:22;97528.63;;;17.13;100.00
42289;BME280;30230;47.520;19.016;2023-08-06T05:30:22;97520.91;;;16.97;100.00
42289;BME280;30230;47.520;19.016;2023-08-06T05:32:22;97511.66;;;16.92;100.00
42289;BME280;30230;47.520;19.016;2023-08-06T05:34:23;97521.97;;;17.01;100.00
42289;BME280;30230;47.520;19.016;2023-08-06T05:36:23;97513.94;;;16.85;100.00
42289;BME280;30230;47.520;19.016;2023-08-06T05:38:24;97511.09;;;16.96;100.00
42289;BME280;30230;47.520;19.016;2023-08-06T05:40:24;97509.75;;;16.93;100.00
42289;BME280;30230;47.520;19.016;2023-08-06T05:42:25;97506.91;;;17.03;100.00
42289;BME280;30230;47.520;19.016;2023-08-06T05:44:25;97489.34;;;16.90;100.00
42289;BME280;30230;47.520;19.016;2023-08-06T05:46:26;97508.88;;;16.98;100.00
42289;BME280;30230;47.520;19.016;2023-08-06T05:48:26;97499.94;;;16.92;100.00
42289;BME280;30230;47.520;19.016;2023-08-06T05:50:28;97508.41;;;16.90;100.00
42289;BME280;30230;47.520;19.016;2023-08-06T05:52:28;97501.00;;;16.96;100.00
42289;BME280;30230;47.520;19.016;2023-08-06T05:54:28;97507.72;;;17.04;100.00
42289;BME280;30230;47.520;19.016;2023-08-06T05:56:29;97511.56;;;17.03;100.00
42289;BME280;30230;47.520;19.016;2023-08-06T05:58:29;97508.06;;;16.97;100.00
42289;BME280;30230;47.520;19.016;2023-08-06T06:00:30;97505.09;;;16.93;100.00
42289;BME280;30230;47.520;19.016;2023-08-06T06:02:31;97493.38;;;16.93;100.00
42289;BME280;30230;47.520;19.016;2023-08-06T06:04:31;97501.22;;;17.00;100.00
42289;BME280;30230;47.520;19.016;2023-08-06T06:06:31;97494.50;;;16.92;100.00
42289;BME280;30230;47.520;19.016;2023-08-06T06:08:32;97491.41;;;16.99;100.00
42289;BME280;30230;47.520;19.016;2023-08-06T06:10:34;97490.09;;;16.96;100.00
42289;BME280;30230;47.520;19.016;2023-08-06T06:12:35;97484.91;;;16.95;100.00
42289;BME280;30230;47.520;19.016;2023-08-06T06:14:35;97484.03;;;16.99;100.00
42289;BME280;30230;47.520;19.016;2023-08-06T06:16:36;97485.91;;;17.04;100.00
42289;BME280;30230;47.520;19.016;2023-08-06T06:18:36;97493.56;;;17.02;100.00
42289;BME280;30230;47.520;19.016;2023-08-06T06:20:36;97495.72;;;17.05;100.00
42289;BME280;30230;47.520;19.016;2023-08-06T06:22:37;97494.16;;;16.99;100.00
42289;BME280;30230;47.520;19.016;2023-08-06T06:24:37;97491.06;;;17.05;100.00
42289;BME280;30230;47.520;19.016;2023-08-06T06:26:38;97491.72;;;16.97;100.00
42289;BME280;30230;47.520;19.016;2023-08-06T06:28:38;97495.81;;;16.95;100.00
42289;BME280;30230;47.520;19.016;2023-08-06T06:30:38;97492.31;;;16.89;100.00
42289;BME280;30230;47.520;19.016;2023-08-06T06:32:39;97507.28;;;16.97;100.00
42289;BME280;30230;47.520;19.016;2023-08-06T06:34:40;97512.28;;;16.84;100.00
42289;BME280;30230;47.520;19.016;2023-08-06T06:36:41;97520.34;;;16.95;100.00
42289;BME280;30230;47.520;19.016;2023-08-06T06:38:41;97531.31;;;16.89;100.00
42289;BME280;30230;47.520;19.016;2023-08-06T06:40:41;97535.53;;;16.77;100.00
42289;BME280;30230;47.520;19.016;2023-08-06T06:42:42;97538.50;;;16.80;100.00
42289;BME280;30230;47.520;19.016;2023-08-06T06:44:42;97536.06;;;16.79;100.00
42289;BME280;30230;47.520;19.016;2023-08-06T06:46:43;97539.53;;;16.84;100.00
42289;BME280;30230;47.520;19.016;2023-08-06T06:48:43;97513.97;;;16.80;100.00
42289;BME280;30230;47.520;19.016;2023-08-06T06:50:47;97535.44;;;16.87;100.00
42289;BME280;30230;47.520;19.016;2023-08-06T06:52:47;97534.03;;;16.89;100.00
42289;BME280;30230;47.520;19.016;2023-08-06T06:54:48;97527.78;;;16.89;100.00
42289;BME280;30230;47.520;19.016;2023-08-06T06:56:48;97514.91;;;16.95;100.00
42289;BME280;30230;47.520;19.016;2023-08-06T06:58:50;97516.81;;;16.94;100.00
42289;BME280;30230;47.520;19.016;2023-08-06T07:00:50;97517.69;;;16.89;100.00
42289;BME280;30230;47.520;19.016;2023-08-06T07:02:51;97518.84;;;16.83;100.00
42289;BME280;30230;47.520;19.016;2023-08-06T07:04:52;97517.16;;;16.87;100.00
42289;BME280;30230;47.520;19.016;2023-08-06T07:06:53;97503.34;;;16.79;100.00
42289;BME280;30230;47.520;19.016;2023-08-06T07:08:54;97505.28;;;16.73;100.00
42289;BME280;30230;47.520;19.016;2023-08-06T07:11:04;97520.34;;;16.95;100.00
42289;BME280;30230;47.520;19.016;2023-08-06T07:13:05;97520.75;;;16.83;100.00
42289;BME280;30230;47.520;19.016;2023-08-06T07:15:08;97526.25;;;16.78;100.00
42289;BME280;30230;47.520;19.016;2023-08-06T07:17:08;97528.38;;;16.86;100.00
42289;BME280;30230;47.520;19.016;2023-08-06T07:19:09;97542.28;;;16.84;100.00
42289;BME280;30230;47.520;19.016;2023-08-06T07:21:09;97542.84;;;16.81;100.00
42289;BME280;30230;47.520;19.016;2023-08-06T07:23:10;97561.41;;;16.79;100.00
42289;BME280;30230;47.520;19.016;2023-08-06T07:25:10;97558.97;;;16.78;100.00
42289;BME280;30230;47.520;19.016;2023-08-06T07:27:11;97556.03;;;16.64;100.00
42289;BME280;30230;47.520;19.016;2023-08-06T07:29:11;97560.94;;;16.72;100.00
42289;BME280;30230;47.520;19.016;2023-08-06T07:31:12;97559.47;;;16.80;100.00
42289;BME280;30230;47.520;19.016;2023-08-06T07:33:12;97558.63;;;16.84;100.00
42289;BME280;30230;47.520;19.016;2023-08-06T07:35:13;97558.72;;;16.74;100.00
42289;BME280;30230;47.520;19.016;2023-08-06T07:37:14;97554.88;;;16.80;100.00
42289;BME280;30230;47.520;19.016;2023-08-06T07:39:15;97552.41;;;16.79;100.00
42289;BME280;30230;47.520;19.016;2023-08-06T07:41:17;97548.34;;;16.76;100.00
42289;BME280;30230;47.520;19.016;2023-08-06T07:43:17;97551.84;;;16.82;100.00
42289;BME280;30230;47.520;19.016;2023-08-06T07:45:18;97547.53;;;16.76;100.00
42289;BME280;30230;47.520;19.016;2023-08-06T07:47:19;97539.13;;;16.72;100.00
42289;BME280;30230;47.520;19.016;2023-08-06T07:49:19;97536.09;;;16.68;100.00
42289;BME280;30230;47.520;19.016;2023-08-06T07:51:20;97547.81;;;16.74;100.00
42289;BME280;30230;47.520;19.016;2023-08-06T07:53:24;97530.94;;;16.67;100.00
42289;BME280;30230;47.520;19.016;2023-08-06T07:55:26;97538.66;;;16.60;100.00
42289;BME280;30230;47.520;19.016;2023-08-06T07:57:27;97523.38;;;16.59;100.00
42289;BME280;30230;47.520;19.016;2023-08-06T07:59:27;97523.63;;;16.62;100.00
42289;BME280;30230;47.520;19.016;2023-08-06T08:01:28;97529.31;;;16.71;100.00
42289;BME280;30230;47.520;19.016;2023-08-06T08:03:28;97522.25;;;16.65;100.00
42289;BME280;30230;47.520;19.016;2023-08-06T08:05:28;97530.84;;;16.82;100.00
42289;BME280;30230;47.520;19.016;2023-08-06T08:07:29;97526.25;;;16.78;100.00
42289;BME280;30230;47.520;19.016;2023-08-06T08:09:30;97528.41;;;16.81;100.00
42289;BME280;30230;47.520;19.016;2023-08-06T08:11:31;97509.66;;;16.69;100.00
42289;BME280;30230;47.520;19.016;2023-08-06T08:13:32;97519.19;;;16.77;100.00
42289;BME280;30230;47.520;19.016;2023-08-06T08:15:32;97530.28;;;16.85;100.00
42289;BME280;30230;47.520;19.016;2023-08-06T08:17:33;97535.75;;;16.85;100.00
42289;BME280;30230;47.520;19.016;2023-08-06T08:19:34;97540.25;;;16.95;100.00
42289;BME280;30230;47.520;19.016;2023-08-06T08:21:35;97530.25;;;16.90;100.00
42289;BME280;30230;47.520;19.016;2023-08-06T08:23:35;97525.88;;;16.89;100.00
42289;BME280;30230;47.520;19.016;2023-08-06T08:25:35;97518.69;;;16.99;100.00
42289;BME280;30230;47.520;19.016;2023-08-06T08:27:36;97535.34;;;16.97;100.00
42289;BME280;30230;47.520;19.016;2023-08-06T08:29:36;97541.16;;;16.90;100.00
42289;BME280;30230;47.520;19.016;2023-08-06T08:31:37;97543.34;;;16.88;100.00
42289;BME280;30230;47.520;19.016;2023-08-06T08:33:39;97554.84;;;16.85;100.00
42289;BME280;30230;47.520;19.016;2023-08-06T08:35:40;97546.44;;;16.77;100.00
42289;BME280;30230;47.520;19.016;2023-08-06T08:37:40;97541.47;;;16.84;100.00
42289;BME280;30230;47.520;19.016;2023-08-06T08:39:41;97534.13;;;16.79;100.00
42289;BME280;30230;47.520;19.016;2023-08-06T08:41:42;97530.81;;;16.87;100.00
42289;BME280;30230;47.520;19.016;2023-08-06T08:43:42;97533.56;;;16.82;100.00
42289;BME280;30230;47.520;19.016;2023-08-06T08:45:43;97535.53;;;16.77;100.00
42289;BME280;30230;47.520;19.016;2023-08-06T08:47:49;97532.72;;;16.87;100.00
42289;BME280;30230;47.520;19.016;2023-08-06T08:49:54;97537.63;;;16.85;100.00
42289;BME280;30230;47.520;19.016;2023-08-06T08:51:56;97543.41;;;16.78;100.00
42289;BME280;30230;47.520;19.016;2023-08-06T08:53:58;97532.00;;;16.76;100.00
42289;BME280;30230;47.520;19.016;2023-08-06T08:55:58;97535.19;;;16.83;100.00
42289;BME280;30230;47.520;19.016;2023-08-06T08:57:59;97533.81;;;16.86;100.00
42289;BME280;30230;47.520;19.016;2023-08-06T09:00:00;97547.03;;;17.03;100.00
42289;BME280;30230;47.520;19.016;2023-08-06T09:02:01;97546.06;;;17.17;100.00
42289;BME280;30230;47.520;19.016;2023-08-06T09:04:02;97544.09;;;17.23;100.00
42289;BME280;30230;47.520;19.016;2023-08-06T09:06:03;97544.91;;;17.24;100.00
42289;BME280;30230;47.520;19.016;2023-08-06T09:08:05;97534.97;;;17.09;100.00
42289;BME280;30230;47.520;19.016;2023-08-06T09:10:06;97541.53;;;17.08;100.00
42289;BME280;30230;47.520;19.016;2023-08-06T09:12:19;97528.88;;;17.17;100.00
42289;BME280;30230;47.520;19.016;2023-08-06T09:14:21;97501.88;;;16.91;100.00
42289;BME280;30230;47.520;19.016;2023-08-06T09:16:21;97504.72;;;17.05;100.00
42289;BME280;30230;47.520;19.016;2023-08-06T09:18:25;97513.69;;;17.11;100.00
42289;BME280;30230;47.520;19.016;2023-08-06T09:20:27;97507.16;;;17.07;100.00
42289;BME280;30230;47.520;19.016;2023-08-06T09:22:33;97516.28;;;17.21;100.00
42289;BME280;30230;47.520;19.016;2023-08-06T09:24:38;97527.22;;;17.16;100.00
42289;BME280;30230;47.520;19.016;2023-08-06T09:26:43;97528.34;;;17.15;100.00
42289;BME280;30230;47.520;19.016;2023-08-06T09:28:44;97527.88;;;17.08;100.00
42289;BME280;30230;47.520;19.016;2023-08-06T09:30:47;97535.91;;;17.23;100.00
42289;BME280;30230;47.520;19.016;2023-08-06T09:32:48;97548.38;;;17.29;100.00
42289;BME280;30230;47.520;19.016;2023-08-06T09:34:56;97530.81;;;17.16;100.00
42289;BME280;30230;47.520;19.016;2023-08-06T09:36:56;97548.97;;;17.26;100.00
42289;BME280;30230;47.520;19.016;2023-08-06T09:38:57;97549.94;;;17.11;100.00
42289;BME280;30230;47.520;19.016;2023-08-06T09:40:57;97549.31;;;17.19;100.00
42289;BME280;30230;47.520;19.016;2023-08-06T09:42:59;97525.25;;;16.98;100.00
42289;BME280;30230;47.520;19.016;2023-08-06T09:45:06;97546.72;;;17.04;100.00
42289;BME280;30230;47.520;19.016;2023-08-06T09:47:06;97539.97;;;17.26;100.00
42289;BME280;30230;47.520;19.016;2023-08-06T09:49:06;97557.22;;;17.45;100.00
42289;BME280;30230;47.520;19.016;2023-08-06T09:51:08;97550.28;;;17.58;100.00
42289;BME280;30230;47.520;19.016;2023-08-06T09:53:09;97560.63;;;17.85;100.00
42289;BME280;30230;47.520;19.016;2023-08-06T09:55:14;97548.81;;;18.08;100.00
42289;BME280;30230;47.520;19.016;2023-08-06T09:57:14;97541.22;;;18.24;100.00
42289;BME280;30230;47.520;19.016;2023-08-06T09:59:17;97551.50;;;17.94;100.00
42289;BME280;30230;47.520;19.016;2023-08-06T10:01:18;97551.75;;;17.93;100.00
42289;BME280;30230;47.520;19.016;2023-08-06T10:03:21;97559.44;;;17.67;100.00
42289;BME280;30230;47.520;19.016;2023-08-06T10:05:22;97554.84;;;17.62;100.00
42289;BME280;30230;47.520;19.016;2023-08-06T10:07:24;97577.13;;;17.75;100.00
42289;BME280;30230;47.520;19.016;2023-08-06T10:09:27;97569.44;;;17.53;100.00
42289;BME280;30230;47.520;19.016;2023-08-06T10:11:29;97561.34;;;17.66;100.00
42289;BME280;30230;47.520;19.016;2023-08-06T10:13:30;97569.44;;;17.77;100.00
42289;BME280;30230;47.520;19.016;2023-08-06T10:15:32;97573.63;;;17.69;100.00
42289;BME280;30230;47.520;19.016;2023-08-06T10:17:34;97586.28;;;17.60;100.00
42289;BME280;30230;47.520;19.016;2023-08-06T10:19:35;97574.72;;;17.44;100.00
42289;BME280;30230;47.520;19.016;2023-08-06T10:21:39;97589.00;;;17.60;100.00
42289;BME280;30230;47.520;19.016;2023-08-06T10:23:40;97586.84;;;17.57;100.00
42289;BME280;30230;47.520;19.016;2023-08-06T10:25:42;97575.06;;;17.61;100.00
42289;BME280;30230;47.520;19.016;2023-08-06T10:29:49;97591.91;;;17.74;100.00
42289;BME280;30230;47.520;19.016;2023-08-06T10:31:54;97589.09;;;17.79;100.00
42289;BME280;30230;47.520;19.016;2023-08-06T10:33:55;97583.28;;;17.85;100.00